sensor_id;sensor_type;location;lat;lon;timestamp;P1;durP1;ratioP1;P2;durP2;ratioP2
25946;SDS011;13745;51.470;9.894;2024-02-14T00:00:03;4.57;;;2.00;;
25946;SDS011;13745;51.470;9.894;2024-02-14T00:02:50;4.53;;;2.00;;
25946;SDS011;13745;51.470;9.894;2024-02-14T00:05:35;4.40;;;1.85;;
25946;SDS011;13745;51.470;9.894;2024-02-14T00:08:21;3.38;;;1.85;;
25946;SDS011;13745;51.470;9.894;2024-02-14T00:11:06;5.93;;;2.40;;
25946;SDS011;13745;51.470;9.894;2024-02-14T00:13:51;3.35;;;1.73;;
25946;SDS011;13745;51.470;9.894;2024-02-14T00:16:37;3.22;;;1.95;;
25946;SDS011;13745;51.470;9.894;2024-02-14T00:19:24;6.15;;;2.17;;
25946;SDS011;13745;51.470;9.894;2024-02-14T00:22:09;3.65;;;2.28;;
25946;SDS011;13745;51.470;9.894;2024-02-14T00:24:54;2.40;;;1.90;;
25946;SDS011;13745;51.470;9.894;2024-02-14T00:27:39;2.38;;;1.70;;
25946;SDS011;13745;51.470;9.894;2024-02-14T00:30:25;4.07;;;2.13;;
25946;SDS011;13745;51.470;9.894;2024-02-14T00:33:10;2.80;;;1.85;;
25946;SDS011;13745;51.470;9.894;2024-02-14T00:35:56;5.85;;;2.10;;
25946;SDS011;13745;51.470;9.894;2024-02-14T00:38:41;3.38;;;1.80;;
25946;SDS011;13745;51.470;9.894;2024-02-14T00:41:26;2.90;;;1.60;;
25946;SDS011;13745;51.470;9.894;2024-02-14T00:44:13;4.47;;;2.05;;
25946;SDS011;13745;51.470;9.894;2024-02-14T00:47:00;3.00;;;1.90;;
25946;SDS011;13745;51.470;9.894;2024-02-14T00:49:46;3.97;;;2.13;;
25946;SDS011;13745;51.470;9.894;2024-02-14T00:52:32;6.13;;;2.17;;
25946;SDS011;13745;51.470;9.894;2024-02-14T00:55:18;6.68;;;2.20;;
25946;SDS011;13745;51.470;9.894;2024-02-14T00:58:03;5.13;;;2.10;;
25946;SDS011;13745;51.470;9.894;2024-02-14T01:00:49;4.97;;;2.08;;
25946;SDS011;13745;51.470;9.894;2024-02-14T01:03:34;6.32;;;2.47;;
25946;SDS011;13745;51.470;9.894;2024-02-14T01:06:19;6.65;;;2.30;;
25946;SDS011;13745;51.470;9.894;2024-02-14T01:09:05;4.03;;;2.13;;
25946;SDS011;13745;51.470;9.894;2024-02-14T01:11:50;3.53;;;2.00;;
25946;SDS011;13745;51.470;9.894;2024-02-14T01:14:36;4.18;;;2.10;;
25946;SDS011;13745;51.470;9.894;2024-02-14T01:17:21;4.20;;;2.17;;
25946;SDS011;13745;51.470;9.894;2024-02-14T01:20:06;5.05;;;2.10;;
25946;SDS011;13745;51.470;9.894;2024-02-14T01:22:52;3.97;;;2.20;;
25946;SDS011;13745;51.470;9.894;2024-02-14T01:25:39;4.72;;;1.88;;
25946;SDS011;13745;51.470;9.894;2024-02-14T01:28:26;5.95;;;2.30;;
25946;SDS011;13745;51.470;9.894;2024-02-14T01:31:11;4.43;;;2.28;;
25946;SDS011;13745;51.470;9.894;2024-02-14T01:33:57;4.72;;;2.13;;
25946;SDS011;13745;51.470;9.894;2024-02-14T01:36:45;2.78;;;1.83;;
25946;SDS011;13745;51.470;9.894;2024-02-14T01:39:30;6.95;;;1.75;;
25946;SDS011;13745;51.470;9.894;2024-02-14T01:42:17;2.40;;;1.60;;
25946;SDS011;13745;51.470;9.894;2024-02-14T01:45:02;3.67;;;2.13;;
25946;SDS011;13745;51.470;9.894;2024-02-14T01:47:47;2.95;;;1.83;;
25946;SDS011;13745;51.470;9.894;2024-02-14T01:50:34;4.72;;;1.70;;
25946;SDS011;13745;51.470;9.894;2024-02-14T01:53:20;4.90;;;1.42;;
25946;SDS011;13745;51.470;9.894;2024-02-14T01:56:05;2.58;;;1.40;;
25946;SDS011;13745;51.470;9.894;2024-02-14T01:58:52;4.15;;;1.50;;
25946;SDS011;13745;51.470;9.894;2024-02-14T02:01:37;5.10;;;1.75;;
25946;SDS011;13745;51.470;9.894;2024-02-14T02:04:23;4.50;;;1.98;;
25946;SDS011;13745;51.470;9.894;2024-02-14T02:07:08;2.25;;;1.45;;
25946;SDS011;13745;51.470;9.894;2024-02-14T02:09:53;2.60;;;1.63;;
25946;SDS011;13745;51.470;9.894;2024-02-14T02:12:38;5.15;;;1.33;;
25946;SDS011;13745;51.470;9.894;2024-02-14T02:15:24;4.53;;;1.35;;
25946;SDS011;13745;51.470;9.894;2024-02-14T02:18:10;2.92;;;1.35;;
25946;SDS011;13745;51.470;9.894;2024-02-14T02:20:55;3.25;;;1.50;;
25946;SDS011;13745;51.470;9.894;2024-02-14T02:23:42;4.28;;;2.15;;
25946;SDS011;13745;51.470;9.894;2024-02-14T02:26:29;3.35;;;1.45;;
25946;SDS011;13745;51.470;9.894;2024-02-14T02:29:14;3.95;;;1.00;;
25946;SDS011;13745;51.470;9.894;2024-02-14T02:32:00;7.03;;;1.83;;
25946;SDS011;13745;51.470;9.894;2024-02-14T02:34:44;4.07;;;1.33;;
25946;SDS011;13745;51.470;9.894;2024-02-14T02:37:30;4.35;;;1.10;;
25946;SDS011;13745;51.470;9.894;2024-02-14T02:40:17;3.67;;;1.17;;
25946;SDS011;13745;51.470;9.894;2024-02-14T02:43:02;3.35;;;0.95;;
25946;SDS011;13745;51.470;9.894;2024-02-14T02:45:47;1.73;;;1.10;;
25946;SDS011;13745;51.470;9.894;2024-02-14T02:48:32;1.98;;;1.15;;
25946;SDS011;13745;51.470;9.894;2024-02-14T02:51:17;3.28;;;1.30;;
25946;SDS011;13745;51.470;9.894;2024-02-14T02:54:02;6.88;;;1.08;;
25946;SDS011;13745;51.470;9.894;2024-02-14T02:56:48;6.97;;;1.30;;
25946;SDS011;13745;51.470;9.894;2024-02-14T02:59:34;4.07;;;1.25;;
25946;SDS011;13745;51.470;9.894;2024-02-14T03:02:19;3.03;;;1.17;;
25946;SDS011;13745;51.470;9.894;2024-02-14T03:05:05;3.83;;;0.95;;
25946;SDS011;13745;51.470;9.894;2024-02-14T03:07:54;3.55;;;1.27;;
25946;SDS011;13745;51.470;9.894;2024-02-14T03:10:42;3.72;;;1.10;;
25946;SDS011;13745;51.470;9.894;2024-02-14T03:13:30;2.50;;;1.23;;
25946;SDS011;13745;51.470;9.894;2024-02-14T03:16:16;2.78;;;1.23;;
25946;SDS011;13745;51.470;9.894;2024-02-14T03:19:01;2.03;;;1.15;;
25946;SDS011;13745;51.470;9.894;2024-02-14T03:21:47;4.18;;;1.05;;
25946;SDS011;13745;51.470;9.894;2024-02-14T03:24:32;4.88;;;1.30;;
25946;SDS011;13745;51.470;9.894;2024-02-14T03:27:18;5.55;;;1.58;;
25946;SDS011;13745;51.470;9.894;2024-02-14T03:30:08;4.30;;;1.13;;
25946;SDS011;13745;51.470;9.894;2024-02-14T03:32:56;4.15;;;0.82;;
25946;SDS011;13745;51.470;9.894;2024-02-14T03:35:41;2.65;;;1.00;;
25946;SDS011;13745;51.470;9.894;2024-02-14T03:38:26;3.03;;;0.88;;
25946;SDS011;13745;51.470;9.894;2024-02-14T03:41:12;2.03;;;0.80;;
25946;SDS011;13745;51.470;9.894;2024-02-14T03:43:57;3.20;;;0.98;;
25946;SDS011;13745;51.470;9.894;2024-02-14T03:46:45;1.73;;;1.10;;
25946;SDS011;13745;51.470;9.894;2024-02-14T03:49:31;7.82;;;1.73;;
25946;SDS011;13745;51.470;9.894;2024-02-14T03:52:16;4.22;;;1.08;;
25946;SDS011;13745;51.470;9.894;2024-02-14T03:55:01;2.97;;;0.98;;
25946;SDS011;13745;51.470;9.894;2024-02-14T03:57:46;3.08;;;0.93;;
25946;SDS011;13745;51.470;9.894;2024-02-14T04:00:32;4.68;;;1.10;;
25946;SDS011;13745;51.470;9.894;2024-02-14T04:03:20;6.88;;;1.48;;
25946;SDS011;13745;51.470;9.894;2024-02-14T04:06:05;6.18;;;1.40;;
25946;SDS011;13745;51.470;9.894;2024-02-14T04:08:50;3.92;;;1.08;;
25946;SDS011;13745;51.470;9.894;2024-02-14T04:11:35;2.08;;;0.90;;
25946;SDS011;13745;51.470;9.894;2024-02-14T04:14:20;3.08;;;1.05;;
25946;SDS011;13745;51.470;9.894;2024-02-14T04:17:05;3.90;;;1.33;;
25946;SDS011;13745;51.470;9.894;2024-02-14T04:19:52;4.30;;;1.58;;
25946;SDS011;13745;51.470;9.894;2024-02-14T04:22:38;3.72;;;1.30;;
25946;SDS011;13745;51.470;9.894;2024-02-14T04:25:23;5.00;;;1.17;;
25946;SDS011;13745;51.470;9.894;2024-02-14T04:28:08;2.55;;;1.55;;
25946;SDS011;13745;51.470;9.894;2024-02-14T04:30:55;5.43;;;1.27;;
25946;SDS011;13745;51.470;9.894;2024-02-14T04:33:41;4.53;;;0.98;;
25946;SDS011;13745;51.470;9.894;2024-02-14T04:36:27;3.33;;;1.13;;
25946;SDS011;13745;51.470;9.894;2024-02-14T04:39:13;7.68;;;1.75;;
25946;SDS011;13745;51.470;9.894;2024-02-14T04:41:58;3.35;;;1.40;;
25946;SDS011;13745;51.470;9.894;2024-02-14T04:44:43;3.00;;;1.77;;
25946;SDS011;13745;51.470;9.894;2024-02-14T04:47:29;4.20;;;1.48;;
25946;SDS011;13745;51.470;9.894;2024-02-14T04:50:14;5.18;;;1.23;;
25946;SDS011;13745;51.470;9.894;2024-02-14T04:53:01;4.47;;;1.40;;
25946;SDS011;13745;51.470;9.894;2024-02-14T04:55:46;2.95;;;1.15;;
25946;SDS011;13745;51.470;9.894;2024-02-14T04:58:31;4.68;;;1.05;;
25946;SDS011;13745;51.470;9.894;2024-02-14T05:01:16;4.78;;;1.63;;
25946;SDS011;13745;51.470;9.894;2024-02-14T05:04:02;2.35;;;1.30;;
25946;SDS011;13745;51.470;9.894;2024-02-14T05:06:47;3.70;;;1.20;;
25946;SDS011;13745;51.470;9.894;2024-02-14T05:09:34;5.32;;;1.20;;
25946;SDS011;13745;51.470;9.894;2024-02-14T05:12:19;4.20;;;1.10;;
25946;SDS011;13745;51.470;9.894;2024-02-14T05:15:04;5.00;;;1.30;;
25946;SDS011;13745;51.470;9.894;2024-02-14T05:17:50;1.80;;;1.17;;
25946;SDS011;13745;51.470;9.894;2024-02-14T05:20:35;2.08;;;1.20;;
25946;SDS011;13745;51.470;9.894;2024-02-14T05:23:22;3.33;;;1.00;;
25946;SDS011;13745;51.470;9.894;2024-02-14T05:26:08;3.63;;;1.23;;
25946;SDS011;13745;51.470;9.894;2024-02-14T05:28:54;3.78;;;1.20;;
25946;SDS011;13745;51.470;9.894;2024-02-14T05:31:43;3.60;;;1.10;;
25946;SDS011;13745;51.470;9.894;2024-02-14T05:34:29;1.77;;;1.08;;
25946;SDS011;13745;51.470;9.894;2024-02-14T05:37:14;3.00;;;1.23;;
25946;SDS011;13745;51.470;9.894;2024-02-14T05:39:58;5.82;;;1.20;;
25946;SDS011;13745;51.470;9.894;2024-02-14T05:42:45;3.92;;;1.35;;
25946;SDS011;13745;51.470;9.894;2024-02-14T05:45:30;3.10;;;1.25;;
25946;SDS011;13745;51.470;9.894;2024-02-14T05:48:15;2.33;;;1.00;;
25946;SDS011;13745;51.470;9.894;2024-02-14T05:51:00;2.63;;;1.23;;
25946;SDS011;13745;51.470;9.894;2024-02-14T05:53:45;2.85;;;1.17;;
25946;SDS011;13745;51.470;9.894;2024-02-14T05:56:30;2.22;;;1.40;;
25946;SDS011;13745;51.470;9.894;2024-02-14T05:59:17;4.00;;;0.95;;
25946;SDS011;13745;51.470;9.894;2024-02-14T06:02:02;3.53;;;1.23;;
25946;SDS011;13745;51.470;9.894;2024-02-14T06:04:49;3.13;;;1.30;;
25946;SDS011;13745;51.470;9.894;2024-02-14T06:07:35;4.18;;;1.40;;
25946;SDS011;13745;51.470;9.894;2024-02-14T06:10:20;2.70;;;1.30;;
25946;SDS011;13745;51.470;9.894;2024-02-14T06:13:05;2.92;;;1.63;;
25946;SDS011;13745;51.470;9.894;2024-02-14T06:15:52;2.20;;;1.35;;
25946;SDS011;13745;51.470;9.894;2024-02-14T06:18:37;4.28;;;1.52;;
25946;SDS011;13745;51.470;9.894;2024-02-14T06:21:23;4.28;;;1.65;;
25946;SDS011;13745;51.470;9.894;2024-02-14T06:24:09;5.50;;;1.98;;
25946;SDS011;13745;51.470;9.894;2024-02-14T06:26:56;2.78;;;1.40;;
25946;SDS011;13745;51.470;9.894;2024-02-14T06:29:42;4.47;;;1.60;;
25946;SDS011;13745;51.470;9.894;2024-02-14T06:32:28;4.60;;;1.40;;
25946;SDS011;13745;51.470;9.894;2024-02-14T06:35:13;3.78;;;1.40;;
25946;SDS011;13745;51.470;9.894;2024-02-14T06:38:02;3.15;;;1.20;;
25946;SDS011;13745;51.470;9.894;2024-02-14T06:40:47;3.83;;;1.45;;
25946;SDS011;13745;51.470;9.894;2024-02-14T06:43:33;3.53;;;1.20;;
25946;SDS011;13745;51.470;9.894;2024-02-14T06:46:19;3.00;;;1.50;;
25946;SDS011;13745;51.470;9.894;2024-02-14T06:49:06;2.30;;;1.50;;
25946;SDS011;13745;51.470;9.894;2024-02-14T06:51:51;5.03;;;2.05;;
25946;SDS011;13745;51.470;9.894;2024-02-14T06:54:36;3.95;;;1.70;;
25946;SDS011;13745;51.470;9.894;2024-02-14T06:57:21;3.28;;;1.55;;
25946;SDS011;13745;51.470;9.894;2024-02-14T07:00:07;2.30;;;1.42;;
25946;SDS011;13745;51.470;9.894;2024-02-14T07:02:53;6.50;;;1.55;;
25946;SDS011;13745;51.470;9.894;2024-02-14T07:05:40;8.02;;;1.73;;
25946;SDS011;13745;51.470;9.894;2024-02-14T07:08:25;4.60;;;1.38;;
25946;SDS011;13745;51.470;9.894;2024-02-14T07:11:12;4.43;;;1.60;;
25946;SDS011;13745;51.470;9.894;2024-02-14T07:13:57;3.38;;;1.52;;
25946;SDS011;13745;51.470;9.894;2024-02-14T07:16:42;3.97;;;1.58;;
25946;SDS011;13745;51.470;9.894;2024-02-14T07:19:27;2.15;;;1.50;;
25946;SDS011;13745;51.470;9.894;2024-02-14T07:22:14;3.47;;;1.77;;
25946;SDS011;13745;51.470;9.894;2024-02-14T07:25:00;3.22;;;2.35;;
25946;SDS011;13745;51.470;9.894;2024-02-14T07:27:45;4.63;;;2.08;;
25946;SDS011;13745;51.470;9.894;2024-02-14T07:30:33;4.38;;;1.65;;
25946;SDS011;13745;51.470;9.894;2024-02-14T07:33:19;4.13;;;2.08;;
25946;SDS011;13745;51.470;9.894;2024-02-14T07:36:04;3.38;;;1.30;;
25946;SDS011;13745;51.470;9.894;2024-02-14T07:38:51;3.90;;;1.70;;
25946;SDS011;13745;51.470;9.894;2024-02-14T07:41:36;4.70;;;1.85;;
25946;SDS011;13745;51.470;9.894;2024-02-14T07:44:21;3.10;;;1.45;;
25946;SDS011;13745;51.470;9.894;2024-02-14T07:47:07;5.28;;;1.80;;
25946;SDS011;13745;51.470;9.894;2024-02-14T07:49:52;5.25;;;1.70;;
25946;SDS011;13745;51.470;9.894;2024-02-14T07:52:41;6.00;;;1.73;;
25946;SDS011;13745;51.470;9.894;2024-02-14T07:55:28;3.05;;;1.50;;
25946;SDS011;13745;51.470;9.894;2024-02-14T07:58:13;3.03;;;1.63;;
25946;SDS011;13745;51.470;9.894;2024-02-14T08:00:58;5.40;;;1.63;;
25946;SDS011;13745;51.470;9.894;2024-02-14T08:03:44;5.50;;;2.15;;
25946;SDS011;13745;51.470;9.894;2024-02-14T08:06:30;2.97;;;1.70;;
25946;SDS011;13745;51.470;9.894;2024-02-14T08:09:15;3.28;;;1.70;;
25946;SDS011;13745;51.470;9.894;2024-02-14T08:12:02;3.13;;;1.60;;
25946;SDS011;13745;51.470;9.894;2024-02-14T08:14:48;4.47;;;1.63;;
25946;SDS011;13745;51.470;9.894;2024-02-14T08:17:34;5.55;;;1.58;;
25946;SDS011;13745;51.470;9.894;2024-02-14T08:20:20;3.42;;;1.73;;
25946;SDS011;13745;51.470;9.894;2024-02-14T08:23:06;5.70;;;1.80;;
25946;SDS011;13745;51.470;9.894;2024-02-14T08:25:51;4.15;;;1.70;;
25946;SDS011;13745;51.470;9.894;2024-02-14T08:28:37;2.22;;;2.00;;
25946;SDS011;13745;51.470;9.894;2024-02-14T08:31:22;3.05;;;1.70;;
25946;SDS011;13745;51.470;9.894;2024-02-14T08:34:08;5.95;;;1.60;;
25946;SDS011;13745;51.470;9.894;2024-02-14T08:36:53;3.63;;;1.70;;
25946;SDS011;13745;51.470;9.894;2024-02-14T08:39:38;4.13;;;2.03;;
25946;SDS011;13745;51.470;9.894;2024-02-14T08:42:24;5.13;;;2.78;;
25946;SDS011;13745;51.470;9.894;2024-02-14T08:45:10;4.25;;;1.50;;
25946;SDS011;13745;51.470;9.894;2024-02-14T08:47:56;3.63;;;1.50;;
25946;SDS011;13745;51.470;9.894;2024-02-14T08:50:40;3.13;;;1.58;;
25946;SDS011;13745;51.470;9.894;2024-02-14T08:53:26;3.03;;;1.35;;
25946;SDS011;13745;51.470;9.894;2024-02-14T08:56:11;2.80;;;1.42;;
25946;SDS011;13745;51.470;9.894;2024-02-14T08:58:56;4.07;;;1.30;;
25946;SDS011;13745;51.470;9.894;2024-02-14T09:01:43;3.25;;;1.67;;
25946;SDS011;13745;51.470;9.894;2024-02-14T09:04:28;2.22;;;1.42;;
25946;SDS011;13745;51.470;9.894;2024-02-14T09:07:14;5.30;;;1.70;;
25946;SDS011;13745;51.470;9.894;2024-02-14T09:09:59;3.97;;;1.83;;
25946;SDS011;13745;51.470;9.894;2024-02-14T09:12:44;3.67;;;1.70;;
25946;SDS011;13745;51.470;9.894;2024-02-14T09:15:29;2.78;;;1.85;;
25946;SDS011;13745;51.470;9.894;2024-02-14T09:18:16;2.47;;;1.63;;
25946;SDS011;13745;51.470;9.894;2024-02-14T09:21:03;2.58;;;1.70;;
25946;SDS011;13745;51.470;9.894;2024-02-14T09:23:49;2.28;;;1.70;;
25946;SDS011;13745;51.470;9.894;2024-02-14T09:26:34;5.03;;;2.17;;
25946;SDS011;13745;51.470;9.894;2024-02-14T09:29:19;2.25;;;1.55;;
25946;SDS011;13745;51.470;9.894;2024-02-14T09:32:04;2.33;;;1.60;;
25946;SDS011;13745;51.470;9.894;2024-02-14T09:34:51;3.20;;;1.80;;
25946;SDS011;13745;51.470;9.894;2024-02-14T09:37:36;4.22;;;2.17;;
25946;SDS011;13745;51.470;9.894;2024-02-14T09:40:22;2.10;;;1.55;;
25946;SDS011;13745;51.470;9.894;2024-02-14T09:43:09;4.03;;;1.50;;
25946;SDS011;13745;51.470;9.894;2024-02-14T09:46:02;5.90;;;2.20;;
25946;SDS011;13745;51.470;9.894;2024-02-14T09:48:47;2.75;;;1.38;;
25946;SDS011;13745;51.470;9.894;2024-02-14T09:51:35;3.33;;;1.75;;
25946;SDS011;13745;51.470;9.894;2024-02-14T09:54:23;4.05;;;1.65;;
25946;SDS011;13745;51.470;9.894;2024-02-14T09:57:08;2.25;;;1.30;;
25946;SDS011;13745;51.470;9.894;2024-02-14T09:59:54;3.25;;;1.42;;
25946;SDS011;13745;51.470;9.894;2024-02-14T10:02:40;1.77;;;1.40;;
25946;SDS011;13745;51.470;9.894;2024-02-14T10:05:25;4.95;;;1.35;;
25946;SDS011;13745;51.470;9.894;2024-02-14T10:08:12;2.20;;;1.38;;
25946;SDS011;13745;51.470;9.894;2024-02-14T10:10:57;4.00;;;1.63;;
25946;SDS011;13745;51.470;9.894;2024-02-14T10:13:44;5.35;;;1.52;;
25946;SDS011;13745;51.470;9.894;2024-02-14T10:16:29;4.63;;;1.92;;
25946;SDS011;13745;51.470;9.894;2024-02-14T10:19:15;4.55;;;2.30;;
25946;SDS011;13745;51.470;9.894;2024-02-14T10:22:01;5.20;;;1.50;;
25946;SDS011;13745;51.470;9.894;2024-02-14T10:24:50;2.08;;;1.55;;
25946;SDS011;13745;51.470;9.894;2024-02-14T10:27:36;3.17;;;1.20;;
25946;SDS011;13745;51.470;9.894;2024-02-14T10:30:22;4.07;;;1.38;;
25946;SDS011;13745;51.470;9.894;2024-02-14T10:33:07;3.70;;;1.58;;
25946;SDS011;13745;51.470;9.894;2024-02-14T10:35:52;3.00;;;1.50;;
25946;SDS011;13745;51.470;9.894;2024-02-14T10:38:39;2.47;;;1.50;;
25946;SDS011;13745;51.470;9.894;2024-02-14T10:41:26;3.80;;;1.70;;
25946;SDS011;13745;51.470;9.894;2024-02-14T10:44:15;3.25;;;1.40;;
25946;SDS011;13745;51.470;9.894;2024-02-14T10:47:01;4.47;;;1.40;;
25946;SDS011;13745;51.470;9.894;2024-02-14T10:49:51;2.45;;;1.60;;
25946;SDS011;13745;51.470;9.894;2024-02-14T10:52:37;3.53;;;1.80;;
25946;SDS011;13745;51.470;9.894;2024-02-14T10:55:26;3.80;;;2.03;;
25946;SDS011;13745;51.470;9.894;2024-02-14T10:58:17;3.25;;;1.67;;
25946;SDS011;13745;51.470;9.894;2024-02-14T11:01:02;5.07;;;2.10;;
25946;SDS011;13745;51.470;9.894;2024-02-14T11:03:48;2.25;;;1.90;;
25946;SDS011;13745;51.470;9.894;2024-02-14T11:06:43;5.88;;;1.77;;
25946;SDS011;13745;51.470;9.894;2024-02-14T11:09:32;4.20;;;2.13;;
25946;SDS011;13745;51.470;9.894;2024-02-14T11:12:18;4.18;;;2.00;;
25946;SDS011;13745;51.470;9.894;2024-02-14T11:15:15;3.03;;;1.75;;
25946;SDS011;13745;51.470;9.894;2024-02-14T11:18:05;4.07;;;2.28;;
25946;SDS011;13745;51.470;9.894;2024-02-14T11:20:52;3.75;;;1.90;;
25946;SDS011;13745;51.470;9.894;2024-02-14T11:23:38;5.43;;;2.15;;
25946;SDS011;13745;51.470;9.894;2024-02-14T11:26:23;3.17;;;1.63;;
25946;SDS011;13745;51.470;9.894;2024-02-14T11:29:08;2.50;;;1.60;;
25946;SDS011;13745;51.470;9.894;2024-02-14T11:32:01;2.42;;;2.10;;
25946;SDS011;13745;51.470;9.894;2024-02-14T11:34:53;4.82;;;2.58;;
25946;SDS011;13745;51.470;9.894;2024-02-14T11:37:39;3.33;;;2.00;;
25946;SDS011;13745;51.470;9.894;2024-02-14T11:40:24;4.25;;;2.40;;
25946;SDS011;13745;51.470;9.894;2024-02-14T11:43:10;5.63;;;2.10;;
25946;SDS011;13745;51.470;9.894;2024-02-14T11:45:57;2.75;;;2.17;;
25946;SDS011;13745;51.470;9.894;2024-02-14T11:48:43;4.55;;;1.83;;
25946;SDS011;13745;51.470;9.894;2024-02-14T11:51:30;3.65;;;1.75;;
25946;SDS011;13745;51.470;9.894;2024-02-14T11:54:17;4.28;;;1.77;;
25946;SDS011;13745;51.470;9.894;2024-02-14T11:57:04;5.90;;;2.25;;
25946;SDS011;13745;51.470;9.894;2024-02-14T11:59:52;2.42;;;1.67;;
25946;SDS011;13745;51.470;9.894;2024-02-14T12:02:37;3.25;;;2.35;;
25946;SDS011;13745;51.470;9.894;2024-02-14T12:05:24;3.00;;;1.83;;
25946;SDS011;13745;51.470;9.894;2024-02-14T12:08:10;2.78;;;1.65;;
25946;SDS011;13745;51.470;9.894;2024-02-14T12:10:55;3.85;;;1.30;;
25946;SDS011;13745;51.470;9.894;2024-02-14T12:13:41;2.60;;;2.08;;
25946;SDS011;13745;51.470;9.894;2024-02-14T12:16:27;3.30;;;1.80;;
25946;SDS011;13745;51.470;9.894;2024-02-14T12:19:13;3.53;;;1.17;;
25946;SDS011;13745;51.470;9.894;2024-02-14T12:22:01;2.72;;;1.50;;
25946;SDS011;13745;51.470;9.894;2024-02-14T12:24:46;3.80;;;2.20;;
25946;SDS011;13745;51.470;9.894;2024-02-14T12:27:32;4.03;;;1.80;;
25946;SDS011;13745;51.470;9.894;2024-02-14T12:30:17;5.45;;;2.08;;
25946;SDS011;13745;51.470;9.894;2024-02-14T12:33:04;1.65;;;1.05;;
25946;SDS011;13745;51.470;9.894;2024-02-14T12:35:53;3.47;;;1.38;;
25946;SDS011;13745;51.470;9.894;2024-02-14T12:38:41;4.10;;;1.60;;
25946;SDS011;13745;51.470;9.894;2024-02-14T12:41:26;2.88;;;1.63;;
25946;SDS011;13745;51.470;9.894;2024-02-14T12:44:13;1.83;;;1.13;;
25946;SDS011;13745;51.470;9.894;2024-02-14T12:46:58;4.55;;;1.42;;
25946;SDS011;13745;51.470;9.894;2024-02-14T12:49:43;4.72;;;1.38;;
25946;SDS011;13745;51.470;9.894;2024-02-14T12:52:29;6.93;;;1.33;;
25946;SDS011;13745;51.470;9.894;2024-02-14T12:55:15;3.45;;;1.40;;
25946;SDS011;13745;51.470;9.894;2024-02-14T12:58:01;4.40;;;1.35;;
25946;SDS011;13745;51.470;9.894;2024-02-14T13:00:47;3.53;;;1.90;;
25946;SDS011;13745;51.470;9.894;2024-02-14T13:03:32;6.47;;;2.60;;
25946;SDS011;13745;51.470;9.894;2024-02-14T13:06:18;4.72;;;1.58;;
25946;SDS011;13745;51.470;9.894;2024-02-14T13:09:04;2.88;;;1.42;;
25946;SDS011;13745;51.470;9.894;2024-02-14T13:11:53;2.78;;;1.15;;
25946;SDS011;13745;51.470;9.894;2024-02-14T13:14:39;3.58;;;1.63;;
25946;SDS011;13745;51.470;9.894;2024-02-14T13:17:24;2.42;;;1.27;;
25946;SDS011;13745;51.470;9.894;2024-02-14T13:20:10;2.78;;;1.48;;
25946;SDS011;13745;51.470;9.894;2024-02-14T13:22:55;3.33;;;1.50;;
25946;SDS011;13745;51.470;9.894;2024-02-14T13:25:41;1.70;;;1.08;;
25946;SDS011;13745;51.470;9.894;2024-02-14T13:28:27;1.42;;;1.13;;
25946;SDS011;13745;51.470;9.894;2024-02-14T13:31:12;2.53;;;1.55;;
25946;SDS011;13745;51.470;9.894;2024-02-14T13:33:58;2.78;;;1.27;;
25946;SDS011;13745;51.470;9.894;2024-02-14T13:36:43;4.32;;;1.48;;
25946;SDS011;13745;51.470;9.894;2024-02-14T13:39:28;3.40;;;1.40;;
25946;SDS011;13745;51.470;9.894;2024-02-14T13:42:13;4.40;;;1.35;;
25946;SDS011;13745;51.470;9.894;2024-02-14T13:44:59;6.65;;;1.40;;
25946;SDS011;13745;51.470;9.894;2024-02-14T13:47:45;2.13;;;0.95;;
25946;SDS011;13745;51.470;9.894;2024-02-14T13:50:30;2.90;;;1.00;;
25946;SDS011;13745;51.470;9.894;2024-02-14T13:53:15;1.73;;;1.20;;
25946;SDS011;13745;51.470;9.894;2024-02-14T13:56:01;4.22;;;1.20;;
25946;SDS011;13745;51.470;9.894;2024-02-14T13:58:46;3.30;;;1.30;;
25946;SDS011;13745;51.470;9.894;2024-02-14T14:01:34;4.88;;;1.42;;
25946;SDS011;13745;51.470;9.894;2024-02-14T14:04:19;3.58;;;1.15;;
25946;SDS011;13745;51.470;9.894;2024-02-14T14:07:04;3.25;;;1.08;;
25946;SDS011;13745;51.470;9.894;2024-02-14T14:09:49;4.25;;;1.35;;
25946;SDS011;13745;51.470;9.894;2024-02-14T14:12:34;2.25;;;1.17;;
25946;SDS011;13745;51.470;9.894;2024-02-14T14:15:20;6.00;;;1.00;;
25946;SDS011;13745;51.470;9.894;2024-02-14T14:18:07;2.70;;;1.15;;
25946;SDS011;13745;51.470;9.894;2024-02-14T14:20:54;2.92;;;1.00;;
25946;SDS011;13745;51.470;9.894;2024-02-14T14:23:39;2.35;;;1.17;;
25946;SDS011;13745;51.470;9.894;2024-02-14T14:26:24;2.70;;;1.50;;
25946;SDS011;13745;51.470;9.894;2024-02-14T14:29:09;3.20;;;1.55;;
25946;SDS011;13745;51.470;9.894;2024-02-14T14:31:54;3.42;;;1.23;;
25946;SDS011;13745;51.470;9.894;2024-02-14T14:34:41;4.85;;;1.50;;
25946;SDS011;13745;51.470;9.894;2024-02-14T14:37:26;5.20;;;1.45;;
25946;SDS011;13745;51.470;9.894;2024-02-14T14:40:11;3.58;;;1.15;;
25946;SDS011;13745;51.470;9.894;2024-02-14T14:42:56;3.72;;;1.48;;
25946;SDS011;13745;51.470;9.894;2024-02-14T14:45:41;1.50;;;0.90;;
25946;SDS011;13745;51.470;9.894;2024-02-14T14:48:26;2.72;;;1.00;;
25946;SDS011;13745;51.470;9.894;2024-02-14T14:51:13;1.88;;;1.00;;
25946;SDS011;13745;51.470;9.894;2024-02-14T14:53:58;2.13;;;1.33;;
25946;SDS011;13745;51.470;9.894;2024-02-14T14:56:43;3.35;;;1.30;;
25946;SDS011;13745;51.470;9.894;2024-02-14T14:59:29;4.25;;;1.33;;
25946;SDS011;13745;51.470;9.894;2024-02-14T15:02:14;2.25;;;1.40;;
25946;SDS011;13745;51.470;9.894;2024-02-14T15:04:59;2.08;;;1.40;;
25946;SDS011;13745;51.470;9.894;2024-02-14T15:07:46;2.22;;;0.90;;
25946;SDS011;13745;51.470;9.894;2024-02-14T15:10:31;2.33;;;0.82;;
25946;SDS011;13745;51.470;9.894;2024-02-14T15:13:17;2.72;;;1.40;;
25946;SDS011;13745;51.470;9.894;2024-02-14T15:16:02;1.20;;;0.93;;
25946;SDS011;13745;51.470;9.894;2024-02-14T15:18:48;2.58;;;1.00;;
25946;SDS011;13745;51.470;9.894;2024-02-14T15:21:33;1.80;;;0.80;;
25946;SDS011;13745;51.470;9.894;2024-02-14T15:24:20;2.30;;;1.02;;
25946;SDS011;13745;51.470;9.894;2024-02-14T15:27:05;1.13;;;0.90;;
25946;SDS011;13745;51.470;9.894;2024-02-14T15:29:50;1.20;;;0.88;;
25946;SDS011;13745;51.470;9.894;2024-02-14T15:32:53;4.28;;;1.20;;
25946;SDS011;13745;51.470;9.894;2024-02-14T15:35:56;1.57;;;0.60;;
25946;SDS011;13745;51.470;9.894;2024-02-14T15:38:42;4.05;;;1.02;;
25946;SDS011;13745;51.470;9.894;2024-02-14T15:41:29;3.08;;;1.33;;
25946;SDS011;13745;51.470;9.894;2024-02-14T15:44:15;2.67;;;0.88;;
25946;SDS011;13745;51.470;9.894;2024-02-14T15:47:01;2.35;;;1.17;;
25946;SDS011;13745;51.470;9.894;2024-02-14T15:49:47;1.95;;;1.08;;
25946;SDS011;13745;51.470;9.894;2024-02-14T15:52:32;2.88;;;1.00;;
25946;SDS011;13745;51.470;9.894;2024-02-14T15:55:17;3.30;;;1.00;;
25946;SDS011;13745;51.470;9.894;2024-02-14T15:58:04;1.80;;;0.88;;
25946;SDS011;13745;51.470;9.894;2024-02-14T16:00:49;2.75;;;0.95;;
25946;SDS011;13745;51.470;9.894;2024-02-14T16:03:34;3.28;;;1.30;;
25946;SDS011;13745;51.470;9.894;2024-02-14T16:06:19;1.95;;;1.20;;
25946;SDS011;13745;51.470;9.894;2024-02-14T16:09:04;2.70;;;1.10;;
25946;SDS011;13745;51.470;9.894;2024-02-14T16:11:49;3.25;;;1.00;;
25946;SDS011;13745;51.470;9.894;2024-02-14T16:14:36;1.98;;;1.00;;
25946;SDS011;13745;51.470;9.894;2024-02-14T16:17:22;2.85;;;1.08;;
25946;SDS011;13745;51.470;9.894;2024-02-14T16:20:07;4.22;;;1.45;;
25946;SDS011;13745;51.470;9.894;2024-02-14T16:22:53;4.55;;;1.23;;
25946;SDS011;13745;51.470;9.894;2024-02-14T16:25:38;3.80;;;1.42;;
25946;SDS011;13745;51.470;9.894;2024-02-14T16:28:24;3.72;;;1.30;;
25946;SDS011;13745;51.470;9.894;2024-02-14T16:31:10;2.03;;;1.02;;
25946;SDS011;13745;51.470;9.894;2024-02-14T16:33:55;5.88;;;1.58;;
25946;SDS011;13745;51.470;9.894;2024-02-14T16:36:40;2.22;;;1.20;;
25946;SDS011;13745;51.470;9.894;2024-02-14T16:39:25;2.60;;;1.70;;